Time;durP1;ratioP1;P1;durP2;ratioP2;P2;SDS_P1;SDS_P2;PMS_P1;PMS_P2;Temp;Humidity;BMP_temperature;BMP_pressure;BME280_temperature;BME280_humidity;BME280_pressure;Samples;Min_cycle;Max_cycle;Signal;HPM_P1;HPM_P2
2022/10/18 00:00:41;;;;;;;3.78;1.17;;;17.10;99.90;;;;;;5055582;28;20122;-70
2022/10/18 00:03:07;;;;;;;2.65;1.38;;;17.10;99.90;;;;;;5055815;28;20138;-67
2022/10/18 00:05:33;;;;;;;2.72;1.30;;;16.90;99.90;;;;;;5055627;28;20044;-69
2022/10/18 00:07:59;;;;;;;1.83;1.13;;;16.80;99.90;;;;;;5055476;28;20041;-70
2022/10/18 00:10:28;;;;;;;2.72;1.17;;;16.80;99.90;;;;;;5054076;28;20094;-67
2022/10/18 00:12:53;;;;;;;4.80;1.00;;;16.80;99.90;;;;;;5055305;28;20044;-70
2022/10/18 00:15:19;;;;;;;1.75;1.25;;;16.80;99.90;;;;;;5055145;28;20052;-70
2022/10/18 00:17:45;;;;;;;3.13;1.02;;;16.80;99.90;;;;;;5055323;28;20043;-70
2022/10/18 00:20:11;;;;;;;1.67;1.10;;;17.00;99.90;;;;;;5055269;28;20087;-70
2022/10/18 00:22:39;;;;;;;2.58;1.40;;;17.20;99.90;;;;;;5055261;28;20033;-68
2022/10/18 00:25:05;;;;;;;1.77;1.20;;;17.30;99.90;;;;;;5055113;28;20047;-70
2022/10/18 00:27:32;;;;;;;1.23;1.00;;;17.40;99.90;;;;;;5054916;28;20045;-69
2022/10/18 00:29:57;;;;;;;2.20;1.10;;;17.30;99.90;;;;;;5054963;28;20041;-70
2022/10/18 00:32:24;;;;;;;4.43;1.20;;;17.30;99.90;;;;;;5055081;28;20067;-70
2022/10/18 00:34:50;;;;;;;3.75;1.10;;;17.40;99.90;;;;;;5055045;28;20557;-67
2022/10/18 00:37:16;;;;;;;1.73;1.05;;;17.30;99.90;;;;;;5054709;28;20048;-70
2022/10/18 00:39:42;;;;;;;1.60;1.00;;;17.40;99.90;;;;;;5054718;28;20508;-69
2022/10/18 00:42:15;;;;;;;4.20;1.00;;;17.40;99.90;;;;;;5054667;28;20122;-67
2022/10/18 00:44:40;;;;;;;7.47;1.00;;;17.30;99.90;;;;;;5054703;28;20043;-71
2022/10/18 00:47:09;;;;;;;1.80;1.17;;;17.30;99.90;;;;;;5054701;28;20480;-70
2022/10/18 00:49:45;;;;;;;1.73;0.90;;;17.40;99.90;;;;;;5054681;28;20523;-71
2022/10/18 00:52:17;;;;;;;2.22;1.13;;;17.40;99.90;;;;;;5054514;28;20102;-68
2022/10/18 00:54:45;;;;;;;1.73;1.27;;;17.40;99.90;;;;;;5054228;28;20048;-70
2022/10/18 00:57:12;;;;;;;2.10;1.17;;;17.40;99.90;;;;;;5054600;28;20043;-70
2022/10/18 00:59:38;;;;;;;3.88;1.20;;;17.40;99.90;;;;;;5054734;28;20532;-71
2022/10/18 01:02:05;;;;;;;2.80;1.20;;;17.30;99.90;;;;;;5054347;28;20067;-70
2022/10/18 01:04:31;;;;;;;5.05;1.50;;;17.30;99.90;;;;;;5054177;28;20040;-70
2022/10/18 01:07:29;;;;;;;2.03;1.33;;;17.20;99.90;;;;;;5053804;28;20036;-71
2022/10/18 01:10:22;;;;;;;3.53;1.30;;;16.80;99.90;;;;;;5054293;28;20049;-70
2022/10/18 01:13:09;;;;;;;1.30;1.13;;;16.70;99.90;;;;;;5054326;28;20370;-70
2022/10/18 01:16:13;;;;;;;3.80;1.10;;;16.60;99.90;;;;;;5054284;28;20029;-67
2022/10/18 01:18:48;;;;;;;3.13;1.35;;;16.80;99.90;;;;;;5054141;28;20037;-67
2022/10/18 01:21:20;;;;;;;3.25;1.33;;;16.60;99.90;;;;;;5054328;28;20072;-70
2022/10/18 01:24:10;;;;;;;1.63;1.10;;;16.80;99.90;;;;;;5053991;28;20094;-67
2022/10/18 01:26:47;;;;;;;2.55;1.30;;;16.90;99.90;;;;;;5054117;28;20051;-70
2022/10/18 01:29:23;;;;;;;1.33;1.00;;;16.90;99.90;;;;;;5054155;28;20076;-70
2022/10/18 01:31:57;;;;;;;2.85;1.48;;;16.80;99.90;;;;;;5054160;28;20032;-70
2022/10/18 01:34:26;;;;;;;2.00;1.15;;;17.00;99.90;;;;;;5053926;28;20041;-69
2022/10/18 01:36:54;;;;;;;4.28;1.15;;;16.90;99.90;;;;;;5053933;28;20040;-70
2022/10/18 01:39:31;;;;;;;1.73;1.08;;;17.00;99.90;;;;;;5053792;28;20040;-70
2022/10/18 01:42:00;;;;;;;2.75;1.10;;;17.00;99.90;;;;;;5053925;28;20033;-71
2022/10/18 01:44:29;;;;;;;3.42;1.35;;;17.10;99.90;;;;;;5054143;28;20045;-71
2022/10/18 01:46:56;;;;;;;2.15;1.35;;;17.10;99.90;;;;;;5053654;28;20033;-67
2022/10/18 01:49:24;;;;;;;4.70;1.20;;;17.10;99.90;;;;;;5053539;28;20079;-71
2022/10/18 01:51:50;;;;;;;2.83;1.40;;;17.10;99.90;;;;;;5053757;28;20037;-69
2022/10/18 01:54:26;;;;;;;3.72;1.30;;;17.10;99.90;;;;;;5053809;28;20059;-70
2022/10/18 01:57:07;;;;;;;1.20;0.98;;;17.10;99.90;;;;;;5053915;28;20037;-70
2022/10/18 02:00:04;;;;;;;3.85;1.20;;;17.00;99.90;;;;;;5053863;28;20037;-70
2022/10/18 02:02:54;;;;;;;3.35;1.40;;;17.00;99.90;;;;;;5053629;28;20116;-70
2022/10/18 02:05:19;;;;;;;1.42;0.90;;;17.10;99.90;;;;;;5071696;28;20037;-70
2022/10/18 02:08:09;;;;;;;2.70;1.15;;;17.00;99.90;;;;;;5073662;28;20062;-68
2022/10/18 02:10:43;;;;;;;4.57;1.45;;;17.10;99.90;;;;;;5073777;28;20131;-70
2022/10/18 02:13:17;;;;;;;3.22;1.20;;;17.10;99.90;;;;;;5073632;28;20072;-69
2022/10/18 02:15:47;;;;;;;2.90;1.50;;;17.10;99.90;;;;;;5073650;28;20078;-70
2022/10/18 02:18:21;;;;;;;7.78;0.95;;;17.10;99.90;;;;;;5075602;28;20047;-70
2022/10/18 02:20:48;;;;;;;1.33;1.05;;;17.00;99.90;;;;;;5077523;28;20500;-67
2022/10/18 02:23:19;;;;;;;3.03;1.38;;;17.00;99.90;;;;;;5077217;28;20036;-70
2022/10/18 02:25:45;;;;;;;3.17;1.45;;;16.90;99.90;;;;;;5077091;28;20040;-69
2022/10/18 02:28:10;;;;;;;2.65;1.08;;;16.90;99.90;;;;;;5077543;28;20036;-68
2022/10/18 02:30:59;;;;;;;4.53;1.15;;;16.90;99.90;;;;;;5077250;28;20047;-67
2022/10/18 02:33:45;;;;;;;1.65;0.90;;;16.90;99.90;;;;;;5069549;28;20472;-67
2022/10/18 02:36:26;;;;;;;3.35;1.55;;;17.00;99.90;;;;;;5077003;28;20040;-70
2022/10/18 02:38:58;;;;;;;2.58;1.10;;;17.10;99.90;;;;;;5076998;28;20458;-70
2022/10/18 02:41:27;;;;;;;2.53;1.20;;;17.10;99.90;;;;;;5077121;28;20507;-70
2022/10/18 02:43:53;;;;;;;2.50;1.02;;;17.00;99.90;;;;;;5077061;28;20399;-70
2022/10/18 02:46:19;;;;;;;1.98;1.25;;;17.00;99.90;;;;;;5077019;28;20040;-71
2022/10/18 02:48:45;;;;;;;0.98;0.75;;;16.90;99.90;;;;;;5077021;28;20692;-70
2022/10/18 02:51:11;;;;;;;3.33;1.20;;;17.00;99.90;;;;;;5076947;28;20044;-70
2022/10/18 02:53:37;;;;;;;2.47;0.98;;;17.00;99.90;;;;;;5076251;28;20548;-71
2022/10/18 02:56:03;;;;;;;1.23;0.95;;;17.00;99.90;;;;;;5076879;28;20089;-70
2022/10/18 02:58:29;;;;;;;1.80;1.02;;;17.10;99.90;;;;;;5076877;28;20055;-67
2022/10/18 03:00:54;;;;;;;1.55;0.93;;;17.10;99.90;;;;;;5076845;28;20036;-70
2022/10/18 03:03:20;;;;;;;5.22;1.33;;;17.00;99.90;;;;;;5076703;28;20032;-70
2022/10/18 03:05:49;;;;;;;2.15;1.13;;;17.00;99.90;;;;;;5076705;28;20028;-71
2022/10/18 03:08:15;;;;;;;2.17;1.20;;;16.80;99.90;;;;;;5076387;28;20048;-70
2022/10/18 03:10:43;;;;;;;3.80;1.10;;;16.80;99.90;;;;;;5076444;28;20420;-70
2022/10/18 03:13:09;;;;;;;2.70;1.20;;;16.70;99.90;;;;;;5076473;28;20040;-70
2022/10/18 03:15:35;;;;;;;3.60;1.30;;;16.80;99.90;;;;;;5076267;28;20044;-70
2022/10/18 03:18:02;;;;;;;4.40;1.40;;;16.70;99.90;;;;;;5076447;28;20045;-67
2022/10/18 03:20:27;;;;;;;3.00;1.08;;;16.60;99.90;;;;;;5076411;28;20067;-67
2022/10/18 03:22:53;;;;;;;1.90;1.20;;;16.50;99.90;;;;;;5076297;28;20072;-70
2022/10/18 03:25:19;;;;;;;3.40;1.52;;;16.30;99.90;;;;;;5076155;28;20137;-70
2022/10/18 03:27:45;;;;;;;2.28;1.30;;;16.30;99.90;;;;;;5076356;28;20032;-71
2022/10/18 03:30:12;;;;;;;3.17;1.35;;;16.40;99.90;;;;;;5075701;28;20040;-70
2022/10/18 03:32:38;;;;;;;0.93;0.90;;;16.30;99.90;;;;;;5076387;28;20062;-67
2022/10/18 03:35:06;;;;;;;3.13;1.70;;;16.30;99.90;;;;;;5076076;28;20033;-71
2022/10/18 03:37:31;;;;;;;1.45;1.08;;;16.40;99.90;;;;;;5075968;28;20087;-70
2022/10/18 03:39:57;;;;;;;2.47;0.98;;;16.50;99.90;;;;;;5074531;28;20102;-70
2022/10/18 03:42:23;;;;;;;4.47;1.48;;;16.40;99.90;;;;;;5067683;28;20076;-71
2022/10/18 03:44:49;;;;;;;2.63;1.20;;;16.50;99.90;;;;;;5053673;28;20029;-67
2022/10/18 03:47:15;;;;;;;2.55;1.25;;;16.50;99.90;;;;;;5054912;28;20117;-71
2022/10/18 03:49:40;;;;;;;3.35;1.15;;;16.50;99.90;;;;;;5055377;28;20099;-71
2022/10/18 03:52:06;;;;;;;4.00;1.23;;;16.60;99.90;;;;;;5055696;28;20063;-69
2022/10/18 03:54:32;;;;;;;2.05;1.42;;;16.60;99.90;;;;;;5055877;28;20118;-71
2022/10/18 03:56:58;;;;;;;2.33;1.08;;;16.80;99.90;;;;;;5055597;28;20511;-71
2022/10/18 03:59:24;;;;;;;1.75;1.35;;;16.60;99.90;;;;;;5054167;28;20455;-68
2022/10/18 04:01:50;;;;;;;4.57;1.65;;;16.40;99.90;;;;;;5055699;28;20068;-71
2022/10/18 04:04:15;;;;;;;3.00;1.38;;;16.40;99.90;;;;;;5053941;28;20481;-71
2022/10/18 04:06:41;;;;;;;2.75;1.52;;;16.70;99.90;;;;;;5055379;28;20523;-71
2022/10/18 04:09:07;;;;;;;2.25;0.90;;;;;;;;;;5055426;28;20040;-69
2022/10/18 04:11:33;;;;;;;7.72;1.60;;;16.80;99.90;;;;;;5055500;28;20044;-71
2022/10/18 04:13:59;;;;;;;1.10;0.98;;;16.60;99.90;;;;;;5055598;28;20037;-68
2022/10/18 04:16:25;;;;;;;2.20;1.30;;;16.50;99.90;;;;;;5055504;28;20059;-71
2022/10/18 04:18:50;;;;;;;2.55;1.50;;;16.70;99.90;;;;;;5055151;28;20091;-67
2022/10/18 04:21:16;;;;;;;2.67;1.48;;;;;;;;;;5055265;28;20378;-70
2022/10/18 04:23:42;;;;;;;3.17;1.08;;;16.10;99.90;;;;;;5055258;28;20049;-70
2022/10/18 04:26:08;;;;;;;4.10;1.63;;;15.80;99.90;;;;;;5055310;28;20443;-71
2022/10/18 04:28:38;;;;;;;3.55;1.38;;;15.80;99.90;;;;;;5054953;28;20069;-70
2022/10/18 04:31:04;;;;;;;3.40;1.30;;;15.80;99.90;;;;;;5055017;28;20400;-71
2022/10/18 04:33:30;;;;;;;2.83;1.30;;;15.70;99.90;;;;;;5054987;28;20401;-70
2022/10/18 04:35:56;;;;;;;3.10;1.45;;;15.80;99.90;;;;;;5054930;28;20037;-67
2022/10/18 04:38:22;;;;;;;1.63;0.88;;;15.70;99.90;;;;;;5054863;28;20623;-71
2022/10/18 04:40:48;;;;;;;1.77;1.08;;;15.70;99.90;;;;;;5054151;28;20123;-71
2022/10/18 04:43:13;;;;;;;3.90;1.40;;;15.80;99.90;;;;;;5054519;28;20037;-70
2022/10/18 04:45:39;;;;;;;4.60;1.33;;;15.90;99.90;;;;;;5054540;28;20036;-71
2022/10/18 04:48:05;;;;;;;2.38;1.40;;;16.10;99.90;;;;;;5054567;28;20053;-70
2022/10/18 04:50:31;;;;;;;3.05;1.30;;;16.10;99.90;;;;;;5054811;28;20417;-70
2022/10/18 04:52:57;;;;;;;3.35;1.30;;;16.00;99.90;;;;;;5064831;28;20043;-68
2022/10/18 04:55:22;;;;;;;1.52;1.00;;;15.90;99.90;;;;;;5074324;28;20033;-68
2022/10/18 04:57:48;;;;;;;5.57;1.67;;;15.70;99.90;;;;;;5074483;28;20044;-67
2022/10/18 05:00:14;;;;;;;1.95;1.20;;;16.00;99.90;;;;;;5074366;28;20078;-69
2022/10/18 05:02:40;;;;;;;1.73;1.27;;;16.00;99.90;;;;;;5074182;28;20045;-69
2022/10/18 05:05:06;;;;;;;2.47;1.48;;;15.90;99.90;;;;;;5074218;28;20544;-70
2022/10/18 05:07:32;;;;;;;2.42;1.23;;;15.80;99.90;;;;;;5074222;28;20052;-70
2022/10/18 05:09:57;;;;;;;4.18;1.48;;;15.80;99.90;;;;;;5074162;28;20412;-69
2022/10/18 05:12:23;;;;;;;2.55;1.33;;;16.10;99.90;;;;;;5072786;28;20484;-70
2022/10/18 05:14:49;;;;;;;2.10;1.23;;;16.20;99.90;;;;;;5074287;28;20111;-70
2022/10/18 05:17:15;;;;;;;2.55;1.25;;;16.30;99.90;;;;;;5074118;28;20119;-67
2022/10/18 05:19:40;;;;;;;2.75;1.35;;;16.00;99.90;;;;;;5074278;28;20044;-70
2022/10/18 05:22:06;;;;;;;2.58;1.85;;;15.90;99.90;;;;;;5074220;28;20484;-70
2022/10/18 05:24:35;;;;;;;1.73;1.35;;;15.70;99.90;;;;;;5072795;28;20503;-71
2022/10/18 05:27:01;;;;;;;1.90;0.90;;;15.70;99.90;;;;;;5073571;28;20032;-68
2022/10/18 05:29:27;;;;;;;4.03;1.52;;;15.70;99.90;;;;;;5073961;28;20055;-66
2022/10/18 05:31:52;;;;;;;4.57;1.45;;;15.70;99.90;;;;;;5073350;28;20535;-69
2022/10/18 05:34:19;;;;;;;3.97;1.20;;;15.90;99.90;;;;;;5072693;28;20063;-69
2022/10/18 05:36:45;;;;;;;2.30;1.60;;;16.00;99.90;;;;;;5071278;28;20044;-69
2022/10/18 05:39:11;;;;;;;3.35;1.40;;;15.70;99.90;;;;;;5069526;28;20048;-69
2022/10/18 05:41:37;;;;;;;5.72;1.30;;;15.50;99.90;;;;;;5072449;28;20043;-69
2022/10/18 05:44:06;;;;;;;3.60;1.52;;;15.50;99.90;;;;;;5072334;28;20040;-69
2022/10/18 05:46:32;;;;;;;5.85;1.45;;;15.50;99.90;;;;;;5052249;28;20114;-69
2022/10/18 05:48:58;;;;;;;8.05;1.65;;;15.60;99.90;;;;;;5053283;28;20063;-68
2022/10/18 05:51:23;;;;;;;2.35;1.63;;;15.70;99.90;;;;;;5051811;28;20029;-68
2022/10/18 05:53:49;;;;;;;3.17;1.25;;;15.80;99.90;;;;;;5059102;28;20041;-68
2022/10/18 05:56:15;;;;;;;4.38;1.63;;;15.80;99.90;;;;;;5064485;28;20536;-67
2022/10/18 05:58:41;;;;;;;3.90;1.60;;;15.80;99.90;;;;;;5076317;28;20044;-67
2022/10/18 06:01:08;;;;;;;4.45;1.85;;;15.90;99.90;;;;;;5069099;28;20136;-65
2022/10/18 06:03:34;;;;;;;3.78;1.40;;;15.90;99.90;;;;;;5075143;28;20044;-67
2022/10/18 06:06:02;;;;;;;3.78;1.98;;;15.90;99.90;;;;;;5078388;28;20037;-67
2022/10/18 06:08:28;;;;;;;3.28;1.70;;;15.90;99.90;;;;;;5079907;28;20048;-65
2022/10/18 06:10:54;;;;;;;1.65;1.40;;;15.80;99.90;;;;;;5080222;28;20060;-66
2022/10/18 06:13:20;;;;;;;2.80;1.60;;;15.80;99.90;;;;;;5080113;28;20044;-66
2022/10/18 06:15:45;;;;;;;3.08;1.13;;;15.80;99.90;;;;;;5073381;28;20123;-65
2022/10/18 06:18:11;;;;;;;2.50;1.48;;;15.70;99.90;;;;;;5059427;28;20043;-65
2022/10/18 06:20:37;;;;;;;8.65;1.45;;;15.80;99.90;;;;;;5059157;28;20095;-67
2022/10/18 06:23:03;;;;;;;3.13;1.60;;;15.70;99.90;;;;;;5059229;28;20049;-67
2022/10/18 06:25:29;;;;;;;4.57;1.52;;;15.80;99.90;;;;;;5059632;28;20127;-67
2022/10/18 06:27:54;;;;;;;3.92;1.88;;;15.80;99.90;;;;;;5071426;28;20496;-67
2022/10/18 06:30:20;;;;;;;5.32;1.40;;;15.80;99.90;;;;;;5073757;28;20414;-66
2022/10/18 06:32:46;;;;;;;4.40;1.63;;;15.50;99.90;;;;;;5069914;28;20527;-68
2022/10/18 06:35:12;;;;;;;2.90;1.70;;;15.40;99.90;;;;;;5060135;28;20523;-67
2022/10/18 06:37:37;;;;;;;2.85;1.30;;;15.50;99.90;;;;;;5060015;28;20412;-66
2022/10/18 06:40:05;;;;;;;2.83;1.70;;;15.90;99.90;;;;;;5060124;28;20033;-66
2022/10/18 06:42:30;;;;;;;6.82;2.15;;;16.00;99.90;;;;;;5060026;28;20040;-67
2022/10/18 06:44:57;;;;;;;4.75;1.50;;;16.20;99.90;;;;;;5059978;28;20385;-68
2022/10/18 06:47:22;;;;;;;6.95;2.08;;;16.40;99.90;;;;;;5060153;28;20051;-67
2022/10/18 06:49:48;;;;;;;2.80;1.40;;;16.50;99.90;;;;;;5059975;28;20048;-67
2022/10/18 06:52:19;;;;;;;7.22;1.95;;;16.70;99.90;;;;;;5060034;28;20500;-67
2022/10/18 06:54:45;;;;;;;7.38;1.92;;;16.70;99.90;;;;;;5059834;28;20526;-67
2022/10/18 06:57:11;;;;;;;4.22;1.60;;;16.90;99.90;;;;;;5068578;28;20032;-67
2022/10/18 06:59:37;;;;;;;6.43;1.60;;;17.00;99.90;;;;;;5079906;28;20039;-67
2022/10/18 07:02:03;;;;;;;3.28;1.48;;;17.10;99.90;;;;;;5079867;28;20089;-67
2022/10/18 07:04:31;;;;;;;2.42;1.70;;;17.10;99.90;;;;;;5076982;28;20033;-67
2022/10/18 07:06:57;;;;;;;4.65;1.80;;;17.20;99.90;;;;;;5076625;28;20484;-67
2022/10/18 07:09:23;;;;;;;3.38;1.85;;;17.30;99.90;;;;;;5076579;28;20050;-68
2022/10/18 07:11:48;;;;;;;3.92;2.15;;;17.40;99.90;;;;;;5076597;28;20074;-67
2022/10/18 07:14:14;;;;;;;4.53;1.85;;;17.60;99.90;;;;;;5076466;28;20123;-68
2022/10/18 07:16:40;;;;;;;4.38;1.95;;;17.80;99.90;;;;;;5076317;28;20036;-68
2022/10/18 07:19:06;;;;;;;7.00;2.47;;;17.90;99.90;;;;;;5076280;28;20085;-68
2022/10/18 07:21:31;;;;;;;4.20;1.55;;;18.10;99.90;;;;;;5076326;28;20080;-67
2022/10/18 07:23:57;;;;;;;5.78;1.70;;;18.10;99.90;;;;;;5076381;28;20170;-68
2022/10/18 07:26:30;;;;;;;5.15;1.60;;;17.50;99.90;;;;;;5076248;28;20043;-68
2022/10/18 07:29:00;;;;;;;5.68;1.48;;;17.50;99.90;;;;;;5076302;28;20175;-68
2022/10/18 07:31:26;;;;;;;5.15;1.67;;;17.60;99.90;;;;;;5076301;28;20044;-68
2022/10/18 07:33:52;;;;;;;3.45;1.50;;;17.70;99.90;;;;;;5075444;28;20036;-68
2022/10/18 07:36:20;;;;;;;7.28;1.77;;;18.30;99.90;;;;;;5075820;28;20048;-67
2022/10/18 07:38:45;;;;;;;5.85;2.22;;;18.50;99.90;;;;;;5075755;28;20130;-68
2022/10/18 07:41:13;;;;;;;3.78;2.28;;;18.80;99.90;;;;;;5075750;28;20500;-67
2022/10/18 07:43:44;;;;;;;6.35;2.58;;;19.00;99.90;;;;;;5075960;28;20032;-68
2022/10/18 07:46:11;;;;;;;4.18;2.20;;;19.00;99.90;;;;;;5072420;28;20033;-68
2022/10/18 07:48:36;;;;;;;4.65;2.45;;;19.20;99.90;;;;;;5060222;28;20045;-68
2022/10/18 07:51:03;;;;;;;3.03;2.47;;;19.30;99.90;;;;;;5054186;28;20045;-67
2022/10/18 07:53:29;;;;;;;6.30;2.67;;;19.40;99.90;;;;;;5055729;28;20049;-67
2022/10/18 07:56:04;;;;;;;4.88;2.15;;;19.40;99.90;;;;;;5055650;28;20569;-68
2022/10/18 07:58:31;;;;;;;6.97;2.42;;;19.40;99.90;;;;;;5055713;28;20400;-68
2022/10/18 08:01:01;;;;;;;3.20;2.35;;;19.60;99.90;;;;;;5055657;28;20427;-67
2022/10/18 08:03:26;;;;;;;3.03;2.10;;;19.80;99.90;;;;;;5055569;28;20044;-68
2022/10/18 08:05:53;;;;;;;3.85;2.35;;;19.90;99.90;;;;;;5055321;28;20036;-68
2022/10/18 08:08:22;;;;;;;5.65;2.38;;;20.10;99.90;;;;;;5055503;28;20052;-68
2022/10/18 08:10:49;;;;;;;6.30;2.42;;;20.20;99.90;;;;;;5055542;28;20179;-68
2022/10/18 08:13:15;;;;;;;3.42;2.33;;;20.20;99.90;;;;;;5055486;28;20033;-69
2022/10/18 08:15:41;;;;;;;3.95;2.47;;;20.60;99.90;;;;;;5055272;28;20045;-68
2022/10/18 08:18:07;;;;;;;5.05;2.38;;;20.80;99.90;;;;;;5055391;28;20507;-68
2022/10/18 08:20:35;;;;;;;6.10;3.17;;;20.70;99.90;;;;;;5055125;28;20102;-68
2022/10/18 08:23:00;;;;;;;3.67;2.20;;;20.70;99.90;;;;;;5055401;28;20066;-68
2022/10/18 08:25:27;;;;;;;3.95;2.28;;;20.70;99.90;;;;;;5055322;28;20489;-68
2022/10/18 08:27:53;;;;;;;4.57;2.40;;;20.40;99.90;;;;;;5055042;28;20523;-67
2022/10/18 08:30:18;;;;;;;5.03;2.17;;;20.30;99.90;;;;;;5054982;28;20037;-67
2022/10/18 08:32:44;;;;;;;3.72;2.03;;;20.80;99.90;;;;;;5055054;28;20103;-68
2022/10/18 08:35:10;;;;;;;5.50;2.20;;;20.90;99.90;;;;;;5055008;28;20543;-67
2022/10/18 08:37:36;;;;;;;6.40;2.05;;;20.90;99.90;;;;;;5055133;28;20044;-67
2022/10/18 08:40:02;;;;;;;9.93;1.88;;;20.70;99.90;;;;;;5055083;28;20041;-68
2022/10/18 08:42:51;;;;;;;7.65;2.08;;;20.80;99.90;;;;;;5054938;28;20049;-67
2022/10/18 08:45:17;;;;;;;4.93;1.70;;;21.10;99.90;;;;;;5054806;28;20037;-68
2022/10/18 08:47:45;;;;;;;4.15;1.80;;;21.50;99.90;;;;;;5054673;28;20037;-67
2022/10/18 08:50:21;;;;;;;4.63;1.98;;;21.50;99.90;;;;;;5054634;28;20091;-68
2022/10/18 08:52:58;;;;;;;4.57;1.70;;;21.60;99.90;;;;;;5054805;28;20036;-67
2022/10/18 08:55:27;;;;;;;3.05;1.67;;;21.80;99.90;;;;;;5054783;28;20043;-68
2022/10/18 08:57:56;;;;;;;4.28;1.95;;;21.90;99.90;;;;;;5054578;28;20044;-68
2022/10/18 09:00:24;;;;;;;4.93;2.08;;;21.90;99.90;;;;;;5066134;28;20044;-68
2022/10/18 09:03:27;;;;;;;6.63;2.03;;;22.00;99.90;;;;;;5074499;28;20044;-68
2022/10/18 09:06:08;;;;;;;2.55;1.48;;;21.90;99.90;;;;;;5074303;28;20384;-68
2022/10/18 09:08:46;;;;;;;2.97;1.70;;;21.90;99.90;;;;;;5074256;28;20476;-68
2022/10/18 09:11:30;;;;;;;3.53;2.03;;;22.20;99.90;;;;;;5074489;28;20036;-68
2022/10/18 09:14:21;;;;;;;4.10;1.55;;;22.30;99.90;;;;;;5074567;28;20488;-68
2022/10/18 09:16:55;;;;;;;3.50;2.00;;;22.40;99.90;;;;;;5055167;28;20046;-67
2022/10/18 09:20:08;;;;;;;4.00;1.65;;;22.50;99.90;;;;;;5074301;28;20059;-67
2022/10/18 09:22:55;;;;;;;2.22;1.25;;;22.60;99.90;;;;;;5055267;28;20052;-67
2022/10/18 09:25:34;;;;;;;3.55;1.60;;;22.70;99.90;;;;;;5074230;28;20526;-68
2022/10/18 09:28:14;;;;;;;2.25;1.65;;;22.40;99.90;;;;;;5073641;28;20413;-67
2022/10/18 09:30:48;;;;;;;4.10;1.60;;;22.50;99.90;;;;;;5073520;28;20040;-67
2022/10/18 09:33:52;;;;;;;3.40;1.55;;;22.40;99.90;;;;;;5074067;28;20032;-67
2022/10/18 09:36:34;;;;;;;3.70;1.70;;;22.70;99.90;;;;;;5072904;28;20059;-67
2022/10/18 09:39:13;;;;;;;3.63;1.85;;;22.60;99.90;;;;;;5073906;28;20052;-67
2022/10/18 09:41:53;;;;;;;5.80;1.83;;;22.50;99.90;;;;;;5073783;28;20067;-67
2022/10/18 09:44:26;;;;;;;6.50;1.77;;;22.60;99.90;;;;;;5073936;28;20556;-67
2022/10/18 09:47:00;;;;;;;4.72;2.17;;;22.90;99.90;;;;;;5073908;28;20036;-67
2022/10/18 09:49:41;;;;;;;2.65;1.83;;;22.80;99.90;;;;;;5073899;28;20052;-67
2022/10/18 09:52:17;;;;;;;3.05;1.80;;;22.50;99.90;;;;;;5074212;28;20430;-67
2022/10/18 09:54:54;;;;;;;3.05;1.73;;;22.90;99.90;;;;;;5073903;28;20045;-67
2022/10/18 09:57:33;;;;;;;3.10;1.65;;;22.70;99.90;;;;;;5073722;28;20033;-66
2022/10/18 10:00:00;;;;;;;3.47;1.63;;;22.80;99.90;;;;;;5073478;28;20404;-65
2022/10/18 10:02:26;;;;;;;4.40;1.70;;;22.80;99.90;;;;;;5073666;28;20033;-66
2022/10/18 10:04:55;;;;;;;5.82;1.80;;;23.10;99.90;;;;;;5073596;28;20071;-67
2022/10/18 10:07:40;;;;;;;3.60;1.80;;;23.30;99.90;;;;;;5073856;28;20041;-67
2022/10/18 10:10:26;;;;;;;3.95;1.90;;;22.70;99.90;;;;;;5066010;28;20073;-67
2022/10/18 10:13:08;;;;;;;3.15;1.52;;;22.90;99.90;;;;;;5060844;28;20048;-66
2022/10/18 10:15:35;;;;;;;4.18;1.40;;;23.30;99.90;;;;;;5073471;28;20511;-67
2022/10/18 10:18:15;;;;;;;3.10;1.27;;;23.30;99.90;;;;;;5073525;28;20063;-65
2022/10/18 10:20:52;;;;;;;3.22;1.45;;;23.40;99.90;;;;;;5073458;28;20074;-66
2022/10/18 10:23:43;;;;;;;4.63;1.42;;;23.40;99.90;;;;;;5073695;28;20052;-66
2022/10/18 10:26:28;;;;;;;3.03;1.50;;;23.60;99.90;;;;;;5073764;28;20400;-65
2022/10/18 10:28:54;;;;;;;3.00;1.75;;;23.30;99.90;;;;;;5057262;28;20076;-66
2022/10/18 10:31:30;;;;;;;4.38;1.30;;;23.30;99.90;;;;;;5053294;28;20485;-65
2022/10/18 10:34:19;;;;;;;4.57;1.70;;;23.30;99.90;;;;;;5053413;28;20171;-65
2022/10/18 10:36:53;;;;;;;5.57;1.55;;;23.40;99.90;;;;;;5053399;28;20033;-65
2022/10/18 10:39:21;;;;;;;4.85;1.80;;;23.20;99.90;;;;;;5053647;28;20052;-66
2022/10/18 10:41:51;;;;;;;3.33;1.50;;;23.10;99.90;;;;;;5057012;28;20040;-66
2022/10/18 10:44:22;;;;;;;6.70;1.67;;;23.30;99.90;;;;;;5056968;28;20044;-66
2022/10/18 10:46:52;;;;;;;3.80;1.52;;;23.20;99.90;;;;;;5062424;28;20086;-66
2022/10/18 10:49:21;;;;;;;4.57;1.92;;;23.10;99.90;;;;;;5057071;28;20044;-66
2022/10/18 10:52:02;;;;;;;4.27;1.90;;;22.80;99.90;;;;;;5057331;28;20065;-67
2022/10/18 10:54:34;;;;;;;3.75;1.98;;;22.80;99.90;;;;;;5056882;28;20586;-65
2022/10/18 10:57:11;;;;;;;6.55;1.70;;;22.50;99.90;;;;;;5073921;28;20041;-65
2022/10/18 10:59:48;;;;;;;5.85;2.45;;;22.30;99.90;;;;;;5076899;28;20044;-65
2022/10/18 11:02:16;;;;;;;5.53;2.00;;;22.30;99.90;;;;;;5076842;28;20036;-66
2022/10/18 11:04:43;;;;;;;5.13;2.53;;;22.30;99.90;;;;;;5076645;28;20444;-66
2022/10/18 11:07:18;;;;;;;6.90;1.95;;;22.10;99.90;;;;;;5076489;28;20117;-65
2022/10/18 11:10:01;;;;;;;5.30;2.08;;;22.10;99.90;;;;;;5076822;28;20122;-65
2022/10/18 11:12:46;;;;;;;4.57;2.15;;;22.10;99.90;;;;;;5076978;28;20481;-65
2022/10/18 11:15:34;;;;;;;5.13;2.05;;;22.10;99.90;;;;;;5076437;28;20499;-65
2022/10/18 11:18:13;;;;;;;3.75;1.83;;;22.30;99.90;;;;;;5076382;28;20036;-64
2022/10/18 11:20:45;;;;;;;5.78;2.70;;;22.20;99.90;;;;;;5076490;28;20488;-65
2022/10/18 11:23:15;;;;;;;2.75;1.80;;;22.10;99.90;;;;;;5076396;28;20044;-65
2022/10/18 11:25:41;;;;;;;3.30;2.17;;;22.30;99.90;;;;;;5076262;28;20385;-65
2022/10/18 11:28:19;;;;;;;2.40;1.80;;;22.30;99.90;;;;;;5076037;28;20089;-65
2022/10/18 11:31:08;;;;;;;6.78;2.15;;;22.10;99.90;;;;;;5076150;28;20044;-65
2022/10/18 11:33:58;;;;;;;7.18;2.20;;;22.00;99.90;;;;;;5076219;28;20055;-65
2022/10/18 11:36:51;;;;;;;2.95;1.92;;;22.10;99.90;;;;;;5076069;28;20034;-65
2022/10/18 11:39:38;;;;;;;3.22;2.30;;;22.00;99.90;;;;;;5074958;28;20056;-65
2022/10/18 11:42:25;;;;;;;4.93;2.10;;;21.90;99.90;;;;;;5074401;28;20094;-66
2022/10/18 11:44:51;;;;;;;3.35;1.75;;;22.00;99.90;;;;;;5070561;28;20037;-66
2022/10/18 11:47:49;;;;;;;5.03;1.63;;;22.30;99.90;;;;;;5076131;28;20109;-66
2022/10/18 11:50:18;;;;;;;6.65;1.90;;;22.30;99.90;;;;;;5074311;28;20123;-66
2022/10/18 11:53:05;;;;;;;7.30;1.70;;;22.50;99.90;;;;;;5067370;28;20040;-66
2022/10/18 11:55:58;;;;;;;4.00;2.00;;;22.30;99.90;;;;;;5054093;28;20049;-67
2022/10/18 11:58:36;;;;;;;5.40;1.88;;;22.30;99.90;;;;;;5053141;28;20036;-66
2022/10/18 12:01:37;;;;;;;2.78;1.50;;;22.30;99.90;;;;;;5053345;28;20044;-67
2022/10/18 12:04:02;;;;;;;;;;;22.30;99.90;;;;;;5053288;28;20672;-67
2022/10/18 12:06:40;;;;;;;2.50;1.60;;;22.30;99.90;;;;;;5054551;28;19908;-67
2022/10/18 12:09:28;;;;;;;7.03;2.30;;;22.40;99.90;;;;;;5053467;28;20045;-66
2022/10/18 12:12:07;;;;;;;8.02;2.13;;;22.30;99.90;;;;;;5053595;28;20036;-66
2022/10/18 12:14:37;;;;;;;8.57;2.40;;;22.00;99.90;;;;;;5054804;28;20040;-67
2022/10/18 12:17:15;;;;;;;7.03;2.22;;;22.10;99.90;;;;;;5052028;28;20131;-67
2022/10/18 12:19:42;;;;;;;5.10;1.88;;;21.90;99.90;;;;;;5053852;28;20045;-66
2022/10/18 12:22:22;;;;;;;3.97;1.92;;;21.80;99.90;;;;;;5053385;28;20037;-66
2022/10/18 12:24:48;;;;;;;4.77;2.00;;;21.90;99.90;;;;;;5053577;28;20505;-66
2022/10/18 12:27:15;;;;;;;3.55;1.90;;;22.00;99.90;;;;;;5052216;28;20052;-66
2022/10/18 12:30:00;;;;;;;6.20;2.05;;;22.00;99.90;;;;;;5052997;28;20416;-66
2022/10/18 12:32:31;;;;;;;3.78;2.00;;;22.00;99.90;;;;;;5053014;28;20044;-66
2022/10/18 12:35:05;;;;;;;2.55;1.85;;;22.10;99.90;;;;;;5054828;28;20511;-67
2022/10/18 12:37:52;;;;;;;3.45;2.05;;;22.30;99.90;;;;;;5053413;28;20040;-67
2022/10/18 12:40:37;;;;;;;3.13;1.92;;;22.20;99.90;;;;;;5054398;28;20041;-67
2022/10/18 12:43:09;;;;;;;4.85;2.70;;;22.30;99.90;;;;;;5053047;28;20123;-66
2022/10/18 12:45:48;;;;;;;2.85;2.20;;;22.20;99.90;;;;;;5053151;28;20423;-66
2022/10/18 12:48:41;;;;;;;5.20;1.88;;;22.40;99.90;;;;;;5051641;28;20090;-66
2022/10/18 12:51:22;;;;;;;7.15;2.20;;;22.10;99.90;;;;;;5053325;28;20067;-66
2022/10/18 12:54:11;;;;;;;5.22;2.10;;;22.30;99.90;;;;;;5052816;28;20123;-66
2022/10/18 12:56:45;;;;;;;7.72;2.38;;;22.40;99.90;;;;;;5052595;28;20120;-66
2022/10/18 12:59:18;;;;;;;4.90;2.22;;;22.30;99.90;;;;;;5048931;28;20036;-67
2022/10/18 13:01:53;;;;;;;4.90;1.63;;;22.50;99.90;;;;;;5051865;28;20037;-67
2022/10/18 13:04:31;;;;;;;4.20;2.00;;;22.50;99.90;;;;;;5052322;28;20029;-66
2022/10/18 13:07:01;;;;;;;5.88;2.13;;;22.40;99.90;;;;;;5052667;28;20456;-66
2022/10/18 13:09:43;;;;;;;7.13;2.13;;;22.30;99.90;;;;;;5053288;28;20485;-66